sensor_id;sensor_type;location;lat;lon;timestamp;P1;durP1;ratioP1;P2;durP2;ratioP2
48853;SDS011;34673;52.808;17.856;2023-03-18T00:01:52;18.33;;;6.75;;
48853;SDS011;34673;52.808;17.856;2023-03-18T00:04:20;15.50;;;7.03;;
48853;SDS011;34673;52.808;17.856;2023-03-18T00:06:47;17.90;;;6.90;;
48853;SDS011;34673;52.808;17.856;2023-03-18T00:09:14;14.95;;;6.72;;
48853;SDS011;34673;52.808;17.856;2023-03-18T00:11:42;16.30;;;7.57;;
48853;SDS011;34673;52.808;17.856;2023-03-18T00:14:11;14.68;;;6.80;;
48853;SDS011;34673;52.808;17.856;2023-03-18T00:16:38;13.82;;;6.45;;
48853;SDS011;34673;52.808;17.856;2023-03-18T00:19:06;16.20;;;6.75;;
48853;SDS011;34673;52.808;17.856;2023-03-18T00:21:33;18.75;;;7.93;;
48853;SDS011;34673;52.808;17.856;2023-03-18T00:24:00;18.23;;;6.93;;
48853;SDS011;34673;52.808;17.856;2023-03-18T00:26:28;16.42;;;6.85;;
48853;SDS011;34673;52.808;17.856;2023-03-18T00:28:55;16.70;;;6.95;;
48853;SDS011;34673;52.808;17.856;2023-03-18T00:31:23;20.40;;;7.53;;
48853;SDS011;34673;52.808;17.856;2023-03-18T00:33:51;17.67;;;7.70;;
48853;SDS011;34673;52.808;17.856;2023-03-18T00:36:19;17.33;;;7.35;;
48853;SDS011;34673;52.808;17.856;2023-03-18T00:38:52;15.45;;;7.32;;
48853;SDS011;34673;52.808;17.856;2023-03-18T00:41:24;18.27;;;7.18;;
48853;SDS011;34673;52.808;17.856;2023-03-18T00:43:55;16.05;;;7.13;;
48853;SDS011;34673;52.808;17.856;2023-03-18T00:46:33;15.88;;;7.18;;
48853;SDS011;34673;52.808;17.856;2023-03-18T00:49:02;15.73;;;7.50;;
48853;SDS011;34673;52.808;17.856;2023-03-18T00:51:32;17.13;;;7.18;;
48853;SDS011;34673;52.808;17.856;2023-03-18T00:54:03;15.40;;;7.38;;
48853;SDS011;34673;52.808;17.856;2023-03-18T00:56:33;16.05;;;7.43;;
48853;SDS011;34673;52.808;17.856;2023-03-18T00:59:04;20.40;;;7.85;;
48853;SDS011;34673;52.808;17.856;2023-03-18T01:01:32;17.25;;;7.78;;
48853;SDS011;34673;52.808;17.856;2023-03-18T01:04:00;18.95;;;7.63;;
48853;SDS011;34673;52.808;17.856;2023-03-18T01:06:28;19.02;;;7.43;;
48853;SDS011;34673;52.808;17.856;2023-03-18T01:08:58;20.17;;;8.32;;
48853;SDS011;34673;52.808;17.856;2023-03-18T01:11:27;16.67;;;7.03;;
48853;SDS011;34673;52.808;17.856;2023-03-18T01:13:54;18.30;;;7.25;;
48853;SDS011;34673;52.808;17.856;2023-03-18T01:16:22;17.75;;;7.95;;
48853;SDS011;34673;52.808;17.856;2023-03-18T01:18:50;18.33;;;8.30;;
48853;SDS011;34673;52.808;17.856;2023-03-18T01:21:18;19.27;;;7.68;;
48853;SDS011;34673;52.808;17.856;2023-03-18T01:23:53;17.52;;;7.43;;
48853;SDS011;34673;52.808;17.856;2023-03-18T01:26:20;17.00;;;8.20;;
48853;SDS011;34673;52.808;17.856;2023-03-18T01:28:48;17.75;;;7.72;;
48853;SDS011;34673;52.808;17.856;2023-03-18T01:31:16;16.20;;;7.88;;
48853;SDS011;34673;52.808;17.856;2023-03-18T01:33:45;20.92;;;8.15;;
48853;SDS011;34673;52.808;17.856;2023-03-18T01:36:13;18.95;;;8.13;;
48853;SDS011;34673;52.808;17.856;2023-03-18T01:38:43;15.80;;;7.50;;
48853;SDS011;34673;52.808;17.856;2023-03-18T01:41:12;19.98;;;8.15;;
48853;SDS011;34673;52.808;17.856;2023-03-18T01:43:40;21.25;;;8.35;;
48853;SDS011;34673;52.808;17.856;2023-03-18T01:46:52;16.38;;;7.47;;
48853;SDS011;34673;52.808;17.856;2023-03-18T01:49:06;17.80;;;8.15;;
48853;SDS011;34673;52.808;17.856;2023-03-18T01:51:38;16.55;;;7.88;;
48853;SDS011;34673;52.808;17.856;2023-03-18T01:54:37;16.17;;;8.32;;
48853;SDS011;34673;52.808;17.856;2023-03-18T01:57:09;16.05;;;7.75;;
48853;SDS011;34673;52.808;17.856;2023-03-18T01:59:38;18.83;;;8.35;;
48853;SDS011;34673;52.808;17.856;2023-03-18T02:02:08;18.17;;;8.32;;
48853;SDS011;34673;52.808;17.856;2023-03-18T02:04:46;20.45;;;8.13;;
48853;SDS011;34673;52.808;17.856;2023-03-18T02:07:17;17.33;;;7.88;;
48853;SDS011;34673;52.808;17.856;2023-03-18T02:09:46;18.90;;;7.68;;
48853;SDS011;34673;52.808;17.856;2023-03-18T02:12:21;18.00;;;7.60;;
48853;SDS011;34673;52.808;17.856;2023-03-18T02:14:58;19.15;;;8.95;;
48853;SDS011;34673;52.808;17.856;2023-03-18T02:17:32;15.88;;;7.70;;
48853;SDS011;34673;52.808;17.856;2023-03-18T02:20:14;15.52;;;7.40;;
48853;SDS011;34673;52.808;17.856;2023-03-18T02:26:53;19.50;;;7.80;;
48853;SDS011;34673;52.808;17.856;2023-03-18T02:29:31;18.75;;;8.63;;
48853;SDS011;34673;52.808;17.856;2023-03-18T02:32:04;21.20;;;8.82;;
48853;SDS011;34673;52.808;17.856;2023-03-18T02:34:33;20.27;;;8.70;;
48853;SDS011;34673;52.808;17.856;2023-03-18T02:37:03;22.73;;;8.80;;
48853;SDS011;34673;52.808;17.856;2023-03-18T02:39:35;17.00;;;7.95;;
48853;SDS011;34673;52.808;17.856;2023-03-18T02:42:03;18.30;;;8.18;;
48853;SDS011;34673;52.808;17.856;2023-03-18T02:44:39;18.65;;;8.20;;
48853;SDS011;34673;52.808;17.856;2023-03-18T02:47:32;17.80;;;7.97;;
48853;SDS011;34673;52.808;17.856;2023-03-18T02:49:59;14.98;;;7.35;;
48853;SDS011;34673;52.808;17.856;2023-03-18T02:52:26;19.40;;;8.57;;
48853;SDS011;34673;52.808;17.856;2023-03-18T02:54:53;17.52;;;7.97;;
48853;SDS011;34673;52.808;17.856;2023-03-18T02:57:26;18.63;;;8.48;;
48853;SDS011;34673;52.808;17.856;2023-03-18T02:59:55;18.05;;;8.75;;
48853;SDS011;34673;52.808;17.856;2023-03-18T03:02:22;20.58;;;8.75;;
48853;SDS011;34673;52.808;17.856;2023-03-18T03:04:50;20.55;;;8.32;;
48853;SDS011;34673;52.808;17.856;2023-03-18T03:07:18;18.15;;;8.50;;
48853;SDS011;34673;52.808;17.856;2023-03-18T03:09:49;17.38;;;8.98;;
48853;SDS011;34673;52.808;17.856;2023-03-18T03:12:18;17.42;;;8.82;;
48853;SDS011;34673;52.808;17.856;2023-03-18T03:14:49;18.30;;;7.97;;
48853;SDS011;34673;52.808;17.856;2023-03-18T03:17:18;22.02;;;8.82;;
48853;SDS011;34673;52.808;17.856;2023-03-18T03:19:45;19.63;;;8.52;;
48853;SDS011;34673;52.808;17.856;2023-03-18T03:22:13;20.27;;;8.30;;
48853;SDS011;34673;52.808;17.856;2023-03-18T03:24:41;17.50;;;7.90;;
48853;SDS011;34673;52.808;17.856;2023-03-18T03:27:09;16.05;;;8.25;;
48853;SDS011;34673;52.808;17.856;2023-03-18T03:29:36;18.27;;;7.80;;
48853;SDS011;34673;52.808;17.856;2023-03-18T03:32:04;19.75;;;8.63;;
48853;SDS011;34673;52.808;17.856;2023-03-18T03:34:31;17.00;;;8.45;;
48853;SDS011;34673;52.808;17.856;2023-03-18T03:36:59;17.25;;;8.20;;
48853;SDS011;34673;52.808;17.856;2023-03-18T03:39:26;16.17;;;8.25;;
48853;SDS011;34673;52.808;17.856;2023-03-18T03:41:53;16.45;;;8.38;;
48853;SDS011;34673;52.808;17.856;2023-03-18T03:44:21;18.65;;;8.27;;
48853;SDS011;34673;52.808;17.856;2023-03-18T03:46:48;22.08;;;9.13;;
48853;SDS011;34673;52.808;17.856;2023-03-18T03:49:15;15.15;;;7.75;;
48853;SDS011;34673;52.808;17.856;2023-03-18T03:51:42;19.40;;;8.43;;
48853;SDS011;34673;52.808;17.856;2023-03-18T03:54:10;17.70;;;8.65;;
48853;SDS011;34673;52.808;17.856;2023-03-18T03:56:38;16.05;;;8.23;;
48853;SDS011;34673;52.808;17.856;2023-03-18T03:59:06;17.92;;;8.10;;
48853;SDS011;34673;52.808;17.856;2023-03-18T04:01:53;20.45;;;9.75;;
48853;SDS011;34673;52.808;17.856;2023-03-18T04:04:21;21.88;;;8.52;;
48853;SDS011;34673;52.808;17.856;2023-03-18T04:06:50;20.02;;;8.38;;
48853;SDS011;34673;52.808;17.856;2023-03-18T04:09:17;19.10;;;8.00;;
48853;SDS011;34673;52.808;17.856;2023-03-18T04:11:44;18.27;;;8.43;;
48853;SDS011;34673;52.808;17.856;2023-03-18T04:14:12;16.98;;;7.90;;
48853;SDS011;34673;52.808;17.856;2023-03-18T04:16:39;19.25;;;8.63;;
48853;SDS011;34673;52.808;17.856;2023-03-18T04:19:07;20.15;;;8.85;;
48853;SDS011;34673;52.808;17.856;2023-03-18T04:21:35;20.88;;;8.75;;
48853;SDS011;34673;52.808;17.856;2023-03-18T04:24:03;18.80;;;8.48;;
48853;SDS011;34673;52.808;17.856;2023-03-18T04:26:30;17.80;;;8.57;;
48853;SDS011;34673;52.808;17.856;2023-03-18T04:29:01;19.38;;;8.32;;
48853;SDS011;34673;52.808;17.856;2023-03-18T04:31:30;18.42;;;9.07;;
48853;SDS011;34673;52.808;17.856;2023-03-18T04:33:58;17.45;;;7.85;;
48853;SDS011;34673;52.808;17.856;2023-03-18T04:36:26;20.55;;;8.55;;
48853;SDS011;34673;52.808;17.856;2023-03-18T04:38:54;19.55;;;8.18;;
48853;SDS011;34673;52.808;17.856;2023-03-18T04:41:23;20.55;;;8.77;;
48853;SDS011;34673;52.808;17.856;2023-03-18T04:43:52;18.92;;;8.88;;
48853;SDS011;34673;52.808;17.856;2023-03-18T04:46:23;19.30;;;9.25;;
48853;SDS011;34673;52.808;17.856;2023-03-18T04:48:55;18.80;;;8.32;;
48853;SDS011;34673;52.808;17.856;2023-03-18T04:51:24;20.35;;;9.13;;
48853;SDS011;34673;52.808;17.856;2023-03-18T04:53:54;21.73;;;8.45;;
48853;SDS011;34673;52.808;17.856;2023-03-18T04:56:24;20.67;;;8.60;;
48853;SDS011;34673;52.808;17.856;2023-03-18T04:58:52;22.08;;;9.02;;
48853;SDS011;34673;52.808;17.856;2023-03-18T05:01:25;17.75;;;8.85;;
48853;SDS011;34673;52.808;17.856;2023-03-18T05:03:52;18.55;;;8.48;;
48853;SDS011;34673;52.808;17.856;2023-03-18T05:06:23;18.50;;;8.77;;
48853;SDS011;34673;52.808;17.856;2023-03-18T05:08:56;20.83;;;9.48;;
48853;SDS011;34673;52.808;17.856;2023-03-18T05:11:27;20.42;;;8.82;;
48853;SDS011;34673;52.808;17.856;2023-03-18T05:16:26;15.35;;;8.40;;
48853;SDS011;34673;52.808;17.856;2023-03-18T05:18:53;21.05;;;9.13;;
48853;SDS011;34673;52.808;17.856;2023-03-18T05:21:20;18.65;;;8.15;;
48853;SDS011;34673;52.808;17.856;2023-03-18T05:23:48;21.38;;;8.85;;
48853;SDS011;34673;52.808;17.856;2023-03-18T05:26:15;18.98;;;8.82;;
48853;SDS011;34673;52.808;17.856;2023-03-18T05:28:44;20.20;;;9.13;;
48853;SDS011;34673;52.808;17.856;2023-03-18T05:31:32;18.85;;;9.50;;
48853;SDS011;34673;52.808;17.856;2023-03-18T05:34:00;18.48;;;9.45;;
48853;SDS011;34673;52.808;17.856;2023-03-18T05:36:32;19.40;;;8.95;;
48853;SDS011;34673;52.808;17.856;2023-03-18T05:39:03;18.88;;;8.77;;
48853;SDS011;34673;52.808;17.856;2023-03-18T05:41:31;22.33;;;8.73;;
48853;SDS011;34673;52.808;17.856;2023-03-18T05:43:58;19.83;;;9.45;;
48853;SDS011;34673;52.808;17.856;2023-03-18T05:46:27;19.85;;;8.93;;
48853;SDS011;34673;52.808;17.856;2023-03-18T05:49:20;18.50;;;8.75;;
48853;SDS011;34673;52.808;17.856;2023-03-18T05:52:12;20.38;;;9.82;;
48853;SDS011;34673;52.808;17.856;2023-03-18T05:54:42;20.83;;;10.02;;
48853;SDS011;34673;52.808;17.856;2023-03-18T05:57:13;20.50;;;9.20;;
48853;SDS011;34673;52.808;17.856;2023-03-18T05:59:41;21.65;;;9.35;;
48853;SDS011;34673;52.808;17.856;2023-03-18T06:02:09;21.25;;;9.75;;
48853;SDS011;34673;52.808;17.856;2023-03-18T06:04:37;18.25;;;9.30;;
48853;SDS011;34673;52.808;17.856;2023-03-18T06:07:05;22.13;;;10.27;;
48853;SDS011;34673;52.808;17.856;2023-03-18T06:09:33;21.85;;;10.18;;
48853;SDS011;34673;52.808;17.856;2023-03-18T06:12:01;22.42;;;9.73;;
48853;SDS011;34673;52.808;17.856;2023-03-18T06:14:29;22.67;;;9.82;;
48853;SDS011;34673;52.808;17.856;2023-03-18T06:17:00;21.55;;;10.25;;
48853;SDS011;34673;52.808;17.856;2023-03-18T06:19:27;20.60;;;9.93;;
48853;SDS011;34673;52.808;17.856;2023-03-18T06:21:56;20.58;;;10.10;;
48853;SDS011;34673;52.808;17.856;2023-03-18T06:24:24;19.67;;;9.15;;
48853;SDS011;34673;52.808;17.856;2023-03-18T06:26:53;22.60;;;10.32;;
48853;SDS011;34673;52.808;17.856;2023-03-18T06:29:21;21.83;;;9.52;;
48853;SDS011;34673;52.808;17.856;2023-03-18T06:31:48;19.67;;;9.52;;
48853;SDS011;34673;52.808;17.856;2023-03-18T06:34:20;19.48;;;10.00;;
48853;SDS011;34673;52.808;17.856;2023-03-18T06:36:47;21.50;;;9.73;;
48853;SDS011;34673;52.808;17.856;2023-03-18T06:39:17;20.10;;;9.48;;
48853;SDS011;34673;52.808;17.856;2023-03-18T06:41:45;24.08;;;9.63;;
48853;SDS011;34673;52.808;17.856;2023-03-18T06:44:29;20.48;;;9.43;;
48853;SDS011;34673;52.808;17.856;2023-03-18T06:47:05;19.13;;;9.23;;
48853;SDS011;34673;52.808;17.856;2023-03-18T06:49:36;19.58;;;9.40;;
48853;SDS011;34673;52.808;17.856;2023-03-18T06:52:09;21.40;;;9.68;;
48853;SDS011;34673;52.808;17.856;2023-03-18T06:54:36;18.80;;;9.50;;
48853;SDS011;34673;52.808;17.856;2023-03-18T06:57:03;20.88;;;9.90;;
48853;SDS011;34673;52.808;17.856;2023-03-18T06:59:33;20.58;;;9.30;;
48853;SDS011;34673;52.808;17.856;2023-03-18T07:02:02;20.63;;;9.93;;
48853;SDS011;34673;52.808;17.856;2023-03-18T07:04:30;19.90;;;9.52;;
48853;SDS011;34673;52.808;17.856;2023-03-18T07:06:59;20.48;;;9.60;;
48853;SDS011;34673;52.808;17.856;2023-03-18T07:09:26;20.15;;;9.45;;
48853;SDS011;34673;52.808;17.856;2023-03-18T07:14:24;24.40;;;9.73;;
48853;SDS011;34673;52.808;17.856;2023-03-18T07:16:51;21.25;;;9.50;;
48853;SDS011;34673;52.808;17.856;2023-03-18T07:19:19;23.50;;;9.50;;
48853;SDS011;34673;52.808;17.856;2023-03-18T07:21:46;19.85;;;10.30;;
48853;SDS011;34673;52.808;17.856;2023-03-18T07:24:15;21.58;;;10.30;;
48853;SDS011;34673;52.808;17.856;2023-03-18T07:26:42;21.95;;;10.25;;
48853;SDS011;34673;52.808;17.856;2023-03-18T07:29:10;20.98;;;9.60;;
48853;SDS011;34673;52.808;17.856;2023-03-18T07:31:37;21.10;;;9.90;;
48853;SDS011;34673;52.808;17.856;2023-03-18T07:34:04;24.45;;;10.52;;
48853;SDS011;34673;52.808;17.856;2023-03-18T07:36:31;20.42;;;10.18;;
48853;SDS011;34673;52.808;17.856;2023-03-18T07:38:58;22.38;;;9.57;;
48853;SDS011;34673;52.808;17.856;2023-03-18T07:41:26;23.48;;;10.15;;
48853;SDS011;34673;52.808;17.856;2023-03-18T07:43:53;23.33;;;11.18;;
48853;SDS011;34673;52.808;17.856;2023-03-18T07:46:21;27.10;;;11.18;;
48853;SDS011;34673;52.808;17.856;2023-03-18T07:48:48;24.40;;;10.98;;
48853;SDS011;34673;52.808;17.856;2023-03-18T07:51:15;24.65;;;11.45;;
48853;SDS011;34673;52.808;17.856;2023-03-18T07:53:43;27.85;;;11.32;;
48853;SDS011;34673;52.808;17.856;2023-03-18T07:56:10;23.65;;;11.15;;
48853;SDS011;34673;52.808;17.856;2023-03-18T07:58:37;22.92;;;10.30;;
48853;SDS011;34673;52.808;17.856;2023-03-18T08:01:05;26.05;;;11.23;;
48853;SDS011;34673;52.808;17.856;2023-03-18T08:03:33;24.38;;;11.50;;
48853;SDS011;34673;52.808;17.856;2023-03-18T08:06:00;27.00;;;11.38;;
48853;SDS011;34673;52.808;17.856;2023-03-18T08:08:28;22.52;;;10.30;;
48853;SDS011;34673;52.808;17.856;2023-03-18T08:10:55;22.48;;;11.52;;
48853;SDS011;34673;52.808;17.856;2023-03-18T08:13:25;22.02;;;10.50;;
48853;SDS011;34673;52.808;17.856;2023-03-18T08:15:52;20.98;;;10.27;;
48853;SDS011;34673;52.808;17.856;2023-03-18T08:18:20;23.88;;;10.82;;
48853;SDS011;34673;52.808;17.856;2023-03-18T08:20:48;22.25;;;11.63;;
48853;SDS011;34673;52.808;17.856;2023-03-18T08:23:15;23.92;;;10.27;;
48853;SDS011;34673;52.808;17.856;2023-03-18T08:25:45;22.77;;;10.85;;
48853;SDS011;34673;52.808;17.856;2023-03-18T08:28:15;20.15;;;10.18;;
48853;SDS011;34673;52.808;17.856;2023-03-18T08:30:43;24.83;;;10.77;;
48853;SDS011;34673;52.808;17.856;2023-03-18T08:33:10;21.90;;;10.25;;
48853;SDS011;34673;52.808;17.856;2023-03-18T08:35:38;22.63;;;10.32;;
48853;SDS011;34673;52.808;17.856;2023-03-18T08:38:09;22.75;;;11.10;;
48853;SDS011;34673;52.808;17.856;2023-03-18T08:40:38;24.27;;;11.60;;
48853;SDS011;34673;52.808;17.856;2023-03-18T08:43:07;24.85;;;11.20;;
48853;SDS011;34673;52.808;17.856;2023-03-18T08:45:35;20.27;;;10.43;;
48853;SDS011;34673;52.808;17.856;2023-03-18T08:48:02;26.38;;;10.90;;
48853;SDS011;34673;52.808;17.856;2023-03-18T08:50:30;22.40;;;11.07;;
48853;SDS011;34673;52.808;17.856;2023-03-18T08:52:58;21.58;;;10.27;;
48853;SDS011;34673;52.808;17.856;2023-03-18T08:55:30;26.40;;;11.80;;
48853;SDS011;34673;52.808;17.856;2023-03-18T08:58:00;22.10;;;11.27;;
48853;SDS011;34673;52.808;17.856;2023-03-18T09:00:27;25.27;;;11.25;;
48853;SDS011;34673;52.808;17.856;2023-03-18T09:02:55;23.85;;;10.50;;
48853;SDS011;34673;52.808;17.856;2023-03-18T09:05:22;22.30;;;10.27;;
48853;SDS011;34673;52.808;17.856;2023-03-18T09:07:50;24.08;;;11.05;;
48853;SDS011;34673;52.808;17.856;2023-03-18T09:10:18;20.88;;;10.75;;
48853;SDS011;34673;52.808;17.856;2023-03-18T09:12:47;18.85;;;9.82;;
48853;SDS011;34673;52.808;17.856;2023-03-18T09:15:15;20.75;;;9.73;;
48853;SDS011;34673;52.808;17.856;2023-03-18T09:17:43;21.40;;;10.27;;
48853;SDS011;34673;52.808;17.856;2023-03-18T09:20:30;22.17;;;10.43;;
48853;SDS011;34673;52.808;17.856;2023-03-18T09:22:59;18.20;;;9.75;;
48853;SDS011;34673;52.808;17.856;2023-03-18T09:25:26;18.45;;;9.13;;
48853;SDS011;34673;52.808;17.856;2023-03-18T09:27:53;18.52;;;8.70;;
48853;SDS011;34673;52.808;17.856;2023-03-18T09:30:20;18.35;;;9.63;;
48853;SDS011;34673;52.808;17.856;2023-03-18T09:32:48;17.88;;;8.82;;
48853;SDS011;34673;52.808;17.856;2023-03-18T09:35:15;16.30;;;8.75;;
48853;SDS011;34673;52.808;17.856;2023-03-18T09:37:42;18.95;;;8.95;;
48853;SDS011;34673;52.808;17.856;2023-03-18T09:40:17;21.25;;;9.63;;
48853;SDS011;34673;52.808;17.856;2023-03-18T09:42:58;18.20;;;9.25;;
48853;SDS011;34673;52.808;17.856;2023-03-18T09:53:49;17.10;;;8.73;;
48853;SDS011;34673;52.808;17.856;2023-03-18T09:56:23;19.35;;;9.70;;
48853;SDS011;34673;52.808;17.856;2023-03-18T10:01:29;19.30;;;9.38;;
48853;SDS011;34673;52.808;17.856;2023-03-18T10:06:31;18.05;;;9.02;;
48853;SDS011;34673;52.808;17.856;2023-03-18T10:11:30;17.70;;;8.98;;
48853;SDS011;34673;52.808;17.856;2023-03-18T10:19:43;18.67;;;9.35;;
48853;SDS011;34673;52.808;17.856;2023-03-18T10:25:08;22.15;;;9.70;;
48853;SDS011;34673;52.808;17.856;2023-03-18T10:28:17;18.02;;;9.40;;
48853;SDS011;34673;52.808;17.856;2023-03-18T10:36:11;19.15;;;9.55;;
48853;SDS011;34673;52.808;17.856;2023-03-18T10:38:48;16.33;;;8.82;;
48853;SDS011;34673;52.808;17.856;2023-03-18T10:41:19;20.55;;;10.50;;
48853;SDS011;34673;52.808;17.856;2023-03-18T10:43:52;17.48;;;9.30;;
48853;SDS011;34673;52.808;17.856;2023-03-18T10:46:21;19.33;;;9.77;;
48853;SDS011;34673;52.808;17.856;2023-03-18T10:56:45;18.98;;;9.52;;
48853;SDS011;34673;52.808;17.856;2023-03-18T10:59:14;21.02;;;10.35;;
48853;SDS011;34673;52.808;17.856;2023-03-18T11:01:45;18.02;;;9.98;;
48853;SDS011;34673;52.808;17.856;2023-03-18T11:04:16;17.63;;;9.45;;
48853;SDS011;34673;52.808;17.856;2023-03-18T11:06:48;17.38;;;10.15;;
48853;SDS011;34673;52.808;17.856;2023-03-18T11:09:21;16.27;;;8.80;;
48853;SDS011;34673;52.808;17.856;2023-03-18T11:11:56;17.98;;;9.57;;
48853;SDS011;34673;52.808;17.856;2023-03-18T11:14:29;20.42;;;10.63;;
48853;SDS011;34673;52.808;17.856;2023-03-18T11:16:57;15.52;;;8.48;;
48853;SDS011;34673;52.808;17.856;2023-03-18T11:19:37;16.25;;;8.10;;
48853;SDS011;34673;52.808;17.856;2023-03-18T11:22:14;18.02;;;9.75;;
48853;SDS011;34673;52.808;17.856;2023-03-18T11:24:45;16.63;;;8.27;;
48853;SDS011;34673;52.808;17.856;2023-03-18T11:29:41;18.08;;;7.80;;
48853;SDS011;34673;52.808;17.856;2023-03-18T11:32:27;15.07;;;6.90;;
48853;SDS011;34673;52.808;17.856;2023-03-18T11:35:00;15.20;;;7.65;;
48853;SDS011;34673;52.808;17.856;2023-03-18T11:37:29;14.45;;;7.95;;
48853;SDS011;34673;52.808;17.856;2023-03-18T11:42:40;15.80;;;7.97;;
48853;SDS011;34673;52.808;17.856;2023-03-18T11:47:53;13.50;;;7.00;;
48853;SDS011;34673;52.808;17.856;2023-03-18T11:50:21;12.20;;;7.30;;
48853;SDS011;34673;52.808;17.856;2023-03-18T11:52:59;17.70;;;8.50;;
48853;SDS011;34673;52.808;17.856;2023-03-18T11:55:50;15.57;;;7.72;;
48853;SDS011;34673;52.808;17.856;2023-03-18T11:58:32;14.93;;;7.85;;
48853;SDS011;34673;52.808;17.856;2023-03-18T12:01:42;15.82;;;7.60;;
48853;SDS011;34673;52.808;17.856;2023-03-18T12:24:07;14.68;;;7.32;;
48853;SDS011;34673;52.808;17.856;2023-03-18T12:41:21;16.45;;;7.50;;
48853;SDS011;34673;52.808;17.856;2023-03-18T12:44:20;13.25;;;7.20;;
48853;SDS011;34673;52.808;17.856;2023-03-18T12:49:52;16.75;;;8.18;;
48853;SDS011;34673;52.808;17.856;2023-03-18T12:57:55;14.63;;;7.63;;
48853;SDS011;34673;52.808;17.856;2023-03-18T13:00:28;16.17;;;8.23;;
48853;SDS011;34673;52.808;17.856;2023-03-18T13:25:23;12.18;;;6.75;;
48853;SDS011;34673;52.808;17.856;2023-03-18T13:36:14;16.80;;;6.72;;
48853;SDS011;34673;52.808;17.856;2023-03-18T13:42:19;14.82;;;6.97;;
48853;SDS011;34673;52.808;17.856;2023-03-18T13:44:56;11.65;;;6.78;;
48853;SDS011;34673;52.808;17.856;2023-03-18T13:47:44;14.73;;;6.82;;
48853;SDS011;34673;52.808;17.856;2023-03-18T13:52:45;13.10;;;6.57;;
48853;SDS011;34673;52.808;17.856;2023-03-18T14:01:10;14.30;;;6.88;;
48853;SDS011;34673;52.808;17.856;2023-03-18T14:13:43;13.63;;;6.70;;
48853;SDS011;34673;52.808;17.856;2023-03-18T14:16:16;14.15;;;7.03;;
48853;SDS011;34673;52.808;17.856;2023-03-18T14:18:55;13.15;;;7.35;;
48853;SDS011;34673;52.808;17.856;2023-03-18T14:21:24;12.45;;;6.88;;
48853;SDS011;34673;52.808;17.856;2023-03-18T14:26:33;17.10;;;8.23;;
48853;SDS011;34673;52.808;17.856;2023-03-18T14:41:48;17.80;;;8.48;;
48853;SDS011;34673;52.808;17.856;2023-03-18T14:44:23;14.23;;;7.75;;
48853;SDS011;34673;52.808;17.856;2023-03-18T14:47:02;16.60;;;8.30;;
48853;SDS011;34673;52.808;17.856;2023-03-18T14:52:31;15.65;;;8.13;;
48853;SDS011;34673;52.808;17.856;2023-03-18T14:55:02;17.00;;;8.35;;
48853;SDS011;34673;52.808;17.856;2023-03-18T14:57:34;14.38;;;7.72;;
48853;SDS011;34673;52.808;17.856;2023-03-18T15:00:01;15.25;;;8.20;;
48853;SDS011;34673;52.808;17.856;2023-03-18T15:02:32;15.57;;;7.88;;
48853;SDS011;34673;52.808;17.856;2023-03-18T15:05:03;16.00;;;8.55;;
48853;SDS011;34673;52.808;17.856;2023-03-18T15:07:33;17.00;;;9.10;;
48853;SDS011;34673;52.808;17.856;2023-03-18T15:10:07;13.82;;;8.25;;
48853;SDS011;34673;52.808;17.856;2023-03-18T15:12:37;14.18;;;8.20;;
48853;SDS011;34673;52.808;17.856;2023-03-18T15:15:05;18.45;;;9.30;;
48853;SDS011;34673;52.808;17.856;2023-03-18T15:17:38;15.20;;;8.75;;
48853;SDS011;34673;52.808;17.856;2023-03-18T15:20:10;16.85;;;8.80;;
48853;SDS011;34673;52.808;17.856;2023-03-18T15:22:38;18.88;;;9.55;;
48853;SDS011;34673;52.808;17.856;2023-03-18T15:25:05;18.58;;;9.05;;
48853;SDS011;34673;52.808;17.856;2023-03-18T15:27:36;17.25;;;9.60;;
48853;SDS011;34673;52.808;17.856;2023-03-18T15:30:04;17.27;;;9.50;;
48853;SDS011;34673;52.808;17.856;2023-03-18T15:32:42;20.00;;;9.98;;
48853;SDS011;34673;52.808;17.856;2023-03-18T15:38:08;16.85;;;9.55;;
48853;SDS011;34673;52.808;17.856;2023-03-18T15:40:44;19.00;;;9.13;;
48853;SDS011;34673;52.808;17.856;2023-03-18T15:43:18;16.45;;;9.93;;
48853;SDS011;34673;52.808;17.856;2023-03-18T15:46:05;18.67;;;10.38;;
48853;SDS011;34673;52.808;17.856;2023-03-18T15:48:53;21.10;;;10.30;;
48853;SDS011;34673;52.808;17.856;2023-03-18T15:51:23;19.52;;;9.45;;
48853;SDS011;34673;52.808;17.856;2023-03-18T15:53:52;18.30;;;10.13;;
48853;SDS011;34673;52.808;17.856;2023-03-18T15:56:25;18.45;;;9.30;;
48853;SDS011;34673;52.808;17.856;2023-03-18T15:58:56;17.90;;;8.77;;
48853;SDS011;34673;52.808;17.856;2023-03-18T16:01:25;17.98;;;8.32;;
48853;SDS011;34673;52.808;17.856;2023-03-18T16:03:52;18.17;;;8.80;;
48853;SDS011;34673;52.808;17.856;2023-03-18T16:06:20;15.98;;;8.80;;
48853;SDS011;34673;52.808;17.856;2023-03-18T16:08:48;19.45;;;8.98;;
48853;SDS011;34673;52.808;17.856;2023-03-18T16:11:15;18.33;;;9.57;;
48853;SDS011;34673;52.808;17.856;2023-03-18T16:13:43;23.45;;;11.00;;
48853;SDS011;34673;52.808;17.856;2023-03-18T16:16:14;22.25;;;10.90;;
48853;SDS011;34673;52.808;17.856;2023-03-18T16:18:44;26.08;;;13.70;;
48853;SDS011;34673;52.808;17.856;2023-03-18T16:21:12;28.00;;;12.60;;
48853;SDS011;34673;52.808;17.856;2023-03-18T16:23:40;21.27;;;10.68;;
48853;SDS011;34673;52.808;17.856;2023-03-18T16:26:10;16.25;;;8.60;;
48853;SDS011;34673;52.808;17.856;2023-03-18T16:28:43;17.27;;;8.38;;
48853;SDS011;34673;52.808;17.856;2023-03-18T16:31:13;16.77;;;8.57;;
48853;SDS011;34673;52.808;17.856;2023-03-18T16:33:41;16.08;;;8.00;;
48853;SDS011;34673;52.808;17.856;2023-03-18T16:36:09;17.35;;;8.10;;
48853;SDS011;34673;52.808;17.856;2023-03-18T16:38:48;15.10;;;8.35;;
48853;SDS011;34673;52.808;17.856;2023-03-18T16:41:16;17.70;;;8.68;;
48853;SDS011;34673;52.808;17.856;2023-03-18T16:43:43;19.75;;;9.05;;
48853;SDS011;34673;52.808;17.856;2023-03-18T16:46:11;19.52;;;8.13;;
48853;SDS011;34673;52.808;17.856;2023-03-18T16:48:40;15.15;;;8.35;;
48853;SDS011;34673;52.808;17.856;2023-03-18T16:51:07;15.55;;;8.40;;
48853;SDS011;34673;52.808;17.856;2023-03-18T16:53:34;17.55;;;8.70;;
48853;SDS011;34673;52.808;17.856;2023-03-18T16:56:17;18.25;;;8.85;;
48853;SDS011;34673;52.808;17.856;2023-03-18T16:58:46;16.60;;;8.95;;
48853;SDS011;34673;52.808;17.856;2023-03-18T17:01:14;17.38;;;8.45;;
48853;SDS011;34673;52.808;17.856;2023-03-18T17:03:42;14.82;;;8.38;;
48853;SDS011;34673;52.808;17.856;2023-03-18T17:06:10;13.73;;;7.68;;
48853;SDS011;34673;52.808;17.856;2023-03-18T17:08:38;18.77;;;8.57;;
48853;SDS011;34673;52.808;17.856;2023-03-18T17:11:06;25.02;;;9.20;;
48853;SDS011;34673;52.808;17.856;2023-03-18T17:13:35;18.95;;;9.02;;
48853;SDS011;34673;52.808;17.856;2023-03-18T17:16:08;20.92;;;9.07;;
48853;SDS011;34673;52.808;17.856;2023-03-18T17:18:42;21.20;;;9.77;;
48853;SDS011;34673;52.808;17.856;2023-03-18T17:21:09;23.73;;;11.52;;
48853;SDS011;34673;52.808;17.856;2023-03-18T17:23:38;25.38;;;11.77;;
48853;SDS011;34673;52.808;17.856;2023-03-18T17:26:05;23.38;;;11.02;;
48853;SDS011;34673;52.808;17.856;2023-03-18T17:28:41;22.30;;;11.13;;
48853;SDS011;34673;52.808;17.856;2023-03-18T17:31:11;20.33;;;10.10;;